Time;durP1;ratioP1;P1;durP2;ratioP2;P2;SDS_P1;SDS_P2;PMS_P1;PMS_P2;Temp;Humidity;BMP_temperature;BMP_pressure;BME280_temperature;BME280_humidity;BME280_pressure;Samples;Min_cycle;Max_cycle;Signal;HPM_P1;HPM_P2
2023/05/27 00:00:13;;;;;;;19.70;3.63;;;;;;;10.12;100.00;102550.25;4964168;28;20590;-77
2023/05/27 00:02:39;;;;;;;19.08;3.05;;;;;;;10.08;100.00;102557.72;4955247;29;20410;-76
2023/05/27 00:05:04;;;;;;;9.68;2.85;;;;;;;9.96;100.00;102528.22;4965774;28;20035;-76
2023/05/27 00:07:30;;;;;;;18.45;3.58;;;;;;;10.09;100.00;102561.34;4952155;28;20039;-76
2023/05/27 00:09:56;;;;;;;23.88;3.55;;;;;;;10.03;100.00;102564.38;4972801;28;20038;-76
2023/05/27 00:12:22;;;;;;;20.15;3.38;;;;;;;10.02;100.00;102557.13;4941919;28;20042;-76
2023/05/27 00:14:47;;;;;;;13.23;3.08;;;;;;;9.96;100.00;102560.19;4973885;28;20035;-76
2023/05/27 00:17:13;;;;;;;10.02;2.60;;;;;;;9.85;100.00;102547.88;4964287;28;20497;-76
2023/05/27 00:19:40;;;;;;;14.25;3.33;;;;;;;9.70;100.00;102537.72;4957366;28;20053;-76
2023/05/27 00:22:06;;;;;;;17.50;3.55;;;;;;;9.82;100.00;102550.81;4941785;28;20103;-76
2023/05/27 00:24:34;;;;;;;14.45;3.33;;;;;;;9.67;100.00;102544.19;4971955;28;20113;-76
2023/05/27 00:27:01;;;;;;;12.65;3.30;;;;;;;9.74;100.00;102550.28;4956722;28;20037;-76
2023/05/27 00:29:27;;;;;;;15.15;2.88;;;;;;;9.55;100.00;102531.13;4942639;28;20061;-76
2023/05/27 00:31:53;;;;;;;15.00;3.13;;;;;;;9.60;100.00;102550.94;4955447;28;20090;-76
2023/05/27 00:34:18;;;;;;;11.15;3.15;;;;;;;9.59;100.00;102551.00;4957499;28;20042;-76
2023/05/27 00:36:44;;;;;;;21.65;3.13;;;;;;;9.64;100.00;102552.56;4941511;28;20031;-77
2023/05/27 00:39:10;;;;;;;13.55;3.13;;;;;;;9.64;100.00;102544.38;4953687;28;20035;-78
2023/05/27 00:41:36;;;;;;;12.63;3.55;;;;;;;9.60;100.00;102541.84;4957609;28;20046;-77
2023/05/27 00:44:02;;;;;;;12.40;2.70;;;;;;;9.53;100.00;102541.25;4960642;28;20117;-78
2023/05/27 00:46:27;;;;;;;15.93;3.35;;;;;;;9.46;100.00;102542.50;4974506;28;20035;-77
2023/05/27 00:48:54;;;;;;;12.30;3.30;;;;;;;9.45;100.00;102543.47;4953274;28;20382;-76
2023/05/27 00:51:19;;;;;;;14.02;3.08;;;;;;;9.50;100.00;102546.88;4943371;28;20055;-76
2023/05/27 00:53:46;;;;;;;14.10;3.00;;;;;;;9.47;100.00;102541.53;4969133;28;20041;-77
2023/05/27 00:56:15;;;;;;;10.73;2.75;;;;;;;9.44;100.00;102545.31;4973204;28;20035;-76
2023/05/27 00:58:43;;;;;;;13.07;2.40;;;;;;;9.36;100.00;102542.03;4973117;28;20109;-76
2023/05/27 01:01:10;;;;;;;13.52;2.72;;;;;;;9.43;100.00;102538.06;4955391;28;20070;-77
2023/05/27 01:03:35;;;;;;;15.95;3.15;;;;;;;9.37;100.00;102538.34;4962906;28;20039;-77
2023/05/27 01:06:28;;;;;;;11.35;2.83;;;;;;;9.32;100.00;102540.44;4978788;28;20053;-77
2023/05/27 01:09:31;;;;;;;15.77;2.83;;;;;;;9.33;100.00;102537.63;4958937;28;20041;-77
2023/05/27 01:12:14;;;;;;;14.68;3.33;;;;;;;9.21;100.00;102527.25;4960701;28;20083;-77
2023/05/27 01:14:43;;;;;;;12.13;2.80;;;;;;;9.29;100.00;102549.63;4980867;28;20035;-77
2023/05/27 01:17:11;;;;;;;18.88;3.40;;;;;;;9.17;100.00;102539.28;4965529;28;20459;-78
2023/05/27 01:19:44;;;;;;;15.23;3.47;;;;;;;9.15;100.00;102533.91;4977968;28;20042;-78
2023/05/27 01:22:15;;;;;;;17.50;3.17;;;;;;;9.06;100.00;102522.50;4969502;28;20038;-78
2023/05/27 01:24:41;;;;;;;12.60;2.60;;;;;;;9.12;100.00;102527.69;4962609;28;20051;-78
2023/05/27 01:27:08;;;;;;;14.43;3.08;;;;;;;9.06;100.00;102530.69;4966199;28;20062;-78
2023/05/27 01:29:35;;;;;;;13.95;3.38;;;;;;;9.10;100.00;102527.75;4978922;28;20037;-78
2023/05/27 01:32:19;;;;;;;19.05;4.68;;;;;;;9.00;100.00;102527.28;4965423;28;20045;-78
2023/05/27 01:35:03;;;;;;;10.18;2.45;;;;;;;8.96;100.00;102517.44;4965211;28;20035;-76
2023/05/27 01:37:33;;;;;;;16.45;2.95;;;;;;;8.99;100.00;102519.16;4947190;28;20042;-77
2023/05/27 01:39:59;;;;;;;13.32;3.33;;;;;;;8.87;100.00;102522.44;4960953;28;20038;-78
2023/05/27 01:42:25;;;;;;;19.38;3.78;;;;;;;8.85;100.00;102521.63;4961950;28;20047;-77
2023/05/27 01:44:52;;;;;;;11.48;3.13;;;;;;;8.80;100.00;102513.63;4966355;28;20090;-77
2023/05/27 01:47:17;;;;;;;12.85;3.53;;;;;;;8.87;100.00;102522.44;4967899;28;20150;-77
2023/05/27 01:49:43;;;;;;;10.70;3.25;;;;;;;8.90;100.00;102505.91;4980774;28;20047;-77
2023/05/27 01:52:08;;;;;;;19.02;3.75;;;;;;;8.77;100.00;102511.03;4965000;28;20054;-78
2023/05/27 01:54:35;;;;;;;9.20;2.45;;;;;;;8.70;100.00;102506.81;4987142;28;20046;-78
2023/05/27 01:57:00;;;;;;;17.98;5.03;;;;;;;8.73;100.00;102515.75;4969585;28;20039;-78
2023/05/27 01:59:26;;;;;;;11.93;3.63;;;;;;;8.56;100.00;102491.03;4951772;28;20045;-78
2023/05/27 02:01:51;;;;;;;14.55;3.33;;;;;;;8.68;100.00;102514.19;4972510;28;20038;-78
2023/05/27 02:04:17;;;;;;;15.05;3.95;;;;;;;8.62;100.00;102502.59;4975394;28;20042;-78
2023/05/27 02:06:43;;;;;;;16.65;3.65;;;;;;;8.55;100.00;102505.66;4986576;28;20038;-78
2023/05/27 02:09:10;;;;;;;17.90;4.82;;;;;;;8.61;100.00;102511.72;4984105;28;20058;-78
2023/05/27 02:11:36;;;;;;;14.25;3.58;;;;;;;8.60;100.00;102509.94;4973095;28;20054;-77
2023/05/27 02:14:02;;;;;;;16.10;3.63;;;;;;;8.61;100.00;102511.72;4949442;28;20094;-78
2023/05/27 02:16:28;;;;;;;12.82;3.63;;;;;;;8.44;100.00;102498.84;4984493;28;20035;-77
2023/05/27 02:18:54;;;;;;;11.20;3.13;;;;;;;8.48;100.00;102502.31;4950616;28;20449;-77
2023/05/27 02:21:20;;;;;;;14.63;3.90;;;;;;;8.42;100.00;102506.16;4963461;28;20055;-77
2023/05/27 02:23:45;;;;;;;14.32;3.78;;;;;;;8.49;100.00;102508.66;4925977;28;20190;-77
2023/05/27 02:26:11;;;;;;;14.60;3.78;;;;;;;8.41;100.00;102514.41;4968927;28;20023;-77
2023/05/27 02:28:36;;;;;;;13.40;3.78;;;;;;;8.37;100.00;102515.50;4981225;28;20070;-77
2023/05/27 02:31:02;;;;;;;10.65;3.20;;;;;;;8.33;100.00;102508.38;4977400;28;20045;-78
2023/05/27 02:33:27;;;;;;;18.60;3.47;;;;;;;8.42;100.00;102502.53;4974408;28;20034;-78
2023/05/27 02:35:53;;;;;;;13.23;3.88;;;;;;;8.38;100.00;102511.78;4963578;28;20059;-77
2023/05/27 02:38:18;;;;;;;16.05;4.00;;;;;;;8.38;100.00;102512.72;4982991;28;20069;-78
2023/05/27 02:40:44;;;;;;;17.33;4.22;;;;;;;8.38;100.00;102515.44;4934656;28;20060;-78
2023/05/27 02:43:09;;;;;;;24.55;4.30;;;;;;;8.32;100.00;102517.53;4962694;28;20035;-78
2023/05/27 02:45:35;;;;;;;14.40;4.18;;;;;;;8.29;100.00;102515.81;4965821;28;20746;-77
2023/05/27 02:48:01;;;;;;;9.65;3.38;;;;;;;8.23;100.00;102511.53;4948075;28;20031;-78
2023/05/27 02:50:27;;;;;;;16.02;3.65;;;;;;;8.23;100.00;102506.06;4964965;28;20054;-78
2023/05/27 02:52:52;;;;;;;14.88;4.60;;;;;;;8.19;100.00;102503.53;4981836;28;20053;-78
2023/05/27 02:55:18;;;;;;;15.18;3.90;;;;;;;8.24;100.00;102512.41;4973622;28;21003;-77
2023/05/27 02:57:43;;;;;;;13.18;3.35;;;;;;;8.18;100.00;102513.56;4965891;28;20042;-78
2023/05/27 03:00:09;;;;;;;13.23;4.00;;;;;;;8.16;100.00;102515.44;4948822;28;20371;-78
2023/05/27 03:02:35;;;;;;;17.13;4.25;;;;;;;8.12;100.00;102513.81;4953649;28;20094;-78
2023/05/27 03:05:00;;;;;;;14.02;3.35;;;;;;;8.10;100.00;102513.88;4968572;28;20035;-78
2023/05/27 03:07:29;;;;;;;15.52;3.88;;;;;;;8.04;100.00;102510.53;4968603;28;20066;-78
2023/05/27 03:09:55;;;;;;;14.25;3.65;;;;;;;8.12;100.00;102512.91;4968886;28;20050;-78
2023/05/27 03:12:21;;;;;;;7.95;3.95;;;;;;;8.09;100.00;102519.41;4965415;28;20055;-78
2023/05/27 03:14:46;;;;;;;14.32;3.85;;;;;;;8.04;100.00;102515.97;4980243;28;20047;-78
2023/05/27 03:17:12;;;;;;;12.50;4.03;;;;;;;8.06;100.00;102517.66;4958911;28;20079;-78
2023/05/27 03:19:37;;;;;;;15.23;4.50;;;;;;;8.00;100.00;102515.22;4982323;28;20043;-78
2023/05/27 03:22:03;;;;;;;14.98;4.22;;;;;;;8.00;100.00;102514.31;4952373;28;20069;-78
2023/05/27 03:24:29;;;;;;;21.75;4.65;;;;;;;7.96;100.00;102516.28;4954474;28;20109;-78
2023/05/27 03:26:54;;;;;;;18.55;4.63;;;;;;;7.98;100.00;102518.94;4947708;28;20050;-77
2023/05/27 03:29:21;;;;;;;18.40;4.43;;;;;;;7.91;100.00;102511.03;4965652;28;20027;-78
2023/05/27 03:31:47;;;;;;;14.05;4.05;;;;;;;7.99;100.00;102510.72;4965856;28;20046;-78
2023/05/27 03:34:14;;;;;;;21.70;4.32;;;;;;;7.94;100.00;102514.59;4970942;28;20505;-77
2023/05/27 03:36:42;;;;;;;18.73;3.67;;;;;;;7.88;100.00;102510.25;4951365;28;20043;-77
2023/05/27 03:39:08;;;;;;;18.10;4.30;;;;;;;7.87;100.00;102498.47;4947756;28;20113;-77
2023/05/27 03:41:34;;;;;;;12.40;3.97;;;;;;;7.90;100.00;102494.72;4966365;28;20066;-78
2023/05/27 03:43:59;;;;;;;17.80;3.92;;;;;;;7.89;100.00;102507.47;4965557;28;20039;-77
2023/05/27 03:46:25;;;;;;;12.50;3.40;;;;;;;7.87;100.00;102503.94;4941448;28;20050;-78
2023/05/27 03:48:50;;;;;;;16.45;3.80;;;;;;;7.78;100.00;102497.97;4956630;28;20043;-78
2023/05/27 03:51:16;;;;;;;19.08;4.25;;;;;;;7.78;100.00;102496.13;4967652;28;20074;-77
2023/05/27 03:53:41;;;;;;;19.75;4.38;;;;;;;7.79;100.00;102491.53;4935020;28;20031;-78
2023/05/27 03:56:07;;;;;;;18.40;4.22;;;;;;;7.75;100.00;102498.09;4932310;28;20041;-78
2023/05/27 03:58:32;;;;;;;13.82;3.72;;;;;;;7.79;100.00;102489.72;4988113;28;20122;-78
2023/05/27 04:00:57;;;;;;;11.98;3.67;;;;;;;7.81;100.00;102489.66;4956240;28;20054;-78
2023/05/27 04:03:23;;;;;;;14.68;3.80;;;;;;;7.71;100.00;102483.69;4971889;28;20054;-78
2023/05/27 04:05:48;;;;;;;12.60;4.22;;;;;;;7.75;100.00;102495.34;4972909;28;20038;-78
2023/05/27 04:08:14;;;;;;;21.40;4.72;;;;;;;7.74;100.00;102497.22;4964268;28;20050;-78
2023/05/27 04:10:39;;;;;;;16.40;4.28;;;;;;;7.79;100.00;102488.81;4982600;28;20047;-78
2023/05/27 04:13:05;;;;;;;14.63;4.35;;;;;;;7.78;100.00;102479.75;4954607;28;20054;-77
2023/05/27 04:15:30;;;;;;;20.88;4.80;;;;;;;7.80;100.00;102479.69;4987429;28;20041;-78
2023/05/27 04:17:56;;;;;;;14.48;4.25;;;;;;;7.78;100.00;102482.47;4987674;28;20045;-77
2023/05/27 04:20:22;;;;;;;16.23;4.60;;;;;;;7.74;100.00;102486.31;4954688;28;20419;-78
2023/05/27 04:22:47;;;;;;;20.35;4.93;;;;;;;7.79;100.00;102480.63;4983725;28;20043;-78
2023/05/27 04:25:13;;;;;;;16.92;4.07;;;;;;;7.73;100.00;102490.84;4954873;28;20113;-78
2023/05/27 04:27:38;;;;;;;10.43;3.97;;;;;;;7.89;100.00;102502.03;4985737;28;20039;-77
2023/05/27 04:30:06;;;;;;;18.77;5.10;;;;;;;7.99;100.00;102485.28;4951695;28;20038;-77
2023/05/27 04:32:37;;;;;;;16.40;3.88;;;;;;;7.95;100.00;102487.22;4964012;28;20035;-78
2023/05/27 04:35:09;;;;;;;15.73;4.18;;;;;;;8.05;100.00;102487.72;4947749;28;20494;-78
2023/05/27 04:37:36;;;;;;;17.17;4.72;;;;;;;8.05;100.00;102480.47;4972559;28;20066;-78
2023/05/27 04:40:06;;;;;;;16.80;4.55;;;;;;;8.13;100.00;102482.84;4976780;28;20023;-78
2023/05/27 04:42:32;;;;;;;21.38;4.70;;;;;;;8.17;100.00;102478.16;4985157;28;20045;-78
2023/05/27 04:44:58;;;;;;;11.57;4.03;;;;;;;8.13;100.00;102480.09;4966077;28;20038;-78
2023/05/27 04:47:23;;;;;;;20.60;4.90;;;;;;;8.19;100.00;102477.13;4979865;28;20050;-78
2023/05/27 04:49:51;;;;;;;21.98;4.95;;;;;;;8.19;100.00;102476.25;4949676;28;20046;-78
2023/05/27 04:52:21;;;;;;;17.33;4.47;;;;;;;8.25;100.00;102471.41;4965507;28;20047;-78
2023/05/27 04:54:47;;;;;;;15.25;4.22;;;;;;;8.38;100.00;102473.59;4936217;28;20035;-79
2023/05/27 04:57:13;;;;;;;19.45;5.35;;;;;;;8.38;100.00;102471.78;4984654;28;20035;-80
2023/05/27 05:02:25;;;;;;;13.80;4.28;;;;;;;8.52;100.00;102468.44;4971313;28;20045;-78
2023/05/27 05:04:50;;;;;;;16.75;4.85;;;;;;;8.55;100.00;102471.03;4965830;28;20055;-79
2023/05/27 05:07:16;;;;;;;15.23;4.47;;;;;;;8.54;100.00;102460.19;4984146;28;20081;-79
2023/05/27 05:09:44;;;;;;;17.05;4.75;;;;;;;8.59;100.00;102463.59;4982377;28;20475;-79
2023/05/27 05:12:10;;;;;;;15.70;4.57;;;;;;;8.69;100.00;102458.59;4940231;28;20058;-80
2023/05/27 05:14:35;;;;;;;19.00;4.60;;;;;;;8.94;100.00;102464.72;4971265;28;20039;-80
2023/05/27 05:17:04;;;;;;;23.88;5.88;;;;;;;8.88;100.00;102455.94;4958015;28;20043;-81
2023/05/27 05:19:30;;;;;;;17.02;4.50;;;;;;;8.96;100.00;102461.94;4947043;28;20030;-79
2023/05/27 05:21:55;;;;;;;20.95;5.05;;;;;;;9.05;100.00;102466.97;4977790;28;20042;-79
2023/05/27 05:24:21;;;;;;;28.13;6.00;;;;;;;9.10;100.00;102458.53;4948076;28;20046;-80
2023/05/27 05:26:46;;;;;;;13.55;4.50;;;;;;;9.43;100.00;102461.53;4966343;28;20051;-84
2023/05/27 05:29:12;;;;;;;16.05;4.90;;;;;;;9.75;100.00;102446.25;4943459;28;20039;-84
2023/05/27 05:31:37;;;;;;;16.67;4.63;;;;;;;10.04;100.00;102460.31;4961546;28;20414;-81
2023/05/27 05:34:03;;;;;;;12.43;4.60;;;;;;;10.39;100.00;102443.06;4957478;28;20066;-81
2023/05/27 05:36:29;;;;;;;9.88;4.07;;;;;;;10.22;100.00;102433.84;4961515;28;20589;-81
2023/05/27 05:38:54;;;;;;;15.38;4.70;;;;;;;10.58;100.00;102443.84;4959645;28;20046;-80
2023/05/27 05:41:19;;;;;;;17.40;4.43;;;;;;;10.64;100.00;102438.06;4962514;28;20039;-78
2023/05/27 05:43:45;;;;;;;15.18;3.80;;;;;;;10.81;100.00;102448.09;4983491;28;20085;-80
2023/05/27 05:46:10;;;;;;;19.00;4.70;;;;;;;10.90;100.00;102449.44;4925335;28;20022;-80
2023/05/27 05:48:36;;;;;;;22.25;4.13;;;;;;;11.15;100.00;102443.50;4978617;28;20047;-79
2023/05/27 05:51:01;;;;;;;16.70;4.63;;;;;;;11.70;100.00;102444.91;4970231;29;20059;-79
2023/05/27 05:53:28;;;;;;;17.42;3.35;;;;;;;11.83;100.00;102441.47;4965771;29;20073;-79
2023/05/27 05:55:53;;;;;;;18.92;3.63;;;;;;;11.83;100.00;102447.81;4967178;29;20024;-79
2023/05/27 05:58:19;;;;;;;14.38;3.83;;;;;;;12.40;100.00;102441.72;4969138;29;20036;-80
2023/05/27 06:00:44;;;;;;;25.50;4.20;;;;;;;12.65;100.00;102434.69;4945502;29;20118;-79
2023/05/27 06:03:10;;;;;;;14.77;3.70;;;;;;;12.56;100.00;102438.00;4911882;29;20062;-80
2023/05/27 06:05:35;;;;;;;14.80;3.65;;;;;;;12.73;100.00;102435.09;4959866;29;20038;-81
2023/05/27 06:08:02;;;;;;;13.30;3.90;;;;;;;12.70;100.00;102446.28;4958542;29;20070;-80
2023/05/27 06:10:27;;;;;;;19.15;4.80;;;;;;;12.74;100.00;102444.22;4958285;29;20107;-79
2023/05/27 06:12:53;;;;;;;11.43;3.85;;;;;;;13.33;100.00;102439.56;4923915;29;20035;-80
2023/05/27 06:15:18;;;;;;;22.60;4.93;;;;;;;13.28;100.00;102438.94;4952555;29;20125;-79
2023/05/27 06:17:44;;;;;;;12.27;3.58;;;;;;;13.74;100.00;102440.50;4956307;28;20039;-82
2023/05/27 06:20:10;;;;;;;17.25;4.30;;;;;;;13.89;100.00;102446.88;4955810;29;20055;-82
2023/05/27 06:22:36;;;;;;;12.85;4.18;;;;;;;13.88;100.00;102442.34;4973101;28;20454;-81
2023/05/27 06:25:01;;;;;;;16.88;4.65;;;;;;;14.09;100.00;102454.66;4952836;28;20065;-82
2023/05/27 06:27:27;;;;;;;14.90;3.60;;;;;;;14.35;100.00;102446.47;4953725;29;20027;-82
2023/05/27 06:29:52;;;;;;;18.00;4.75;;;;;;;14.39;100.00;102445.25;4939772;29;20134;-83
2023/05/27 06:32:17;;;;;;;18.20;3.95;;;;;;;14.23;100.00;102445.47;4925778;29;20114;-82
2023/05/27 06:34:43;;;;;;;13.15;4.45;;;;;;;14.58;100.00;102430.19;4958196;29;20051;-81
2023/05/27 06:37:08;;;;;;;20.80;4.53;;;;;;;14.23;100.00;102423.41;4958866;28;20031;-81
2023/05/27 06:39:34;;;;;;;18.70;3.80;;;;;;;14.69;100.00;102422.06;4942274;29;20083;-82
2023/05/27 06:41:59;;;;;;;21.20;4.07;;;;;;;14.87;100.00;102426.25;4961612;28;20517;-82
2023/05/27 06:44:25;;;;;;;16.48;4.15;;;;;;;14.99;100.00;102424.50;4955328;28;20095;-80
2023/05/27 06:46:50;;;;;;;10.25;3.63;;;;;;;15.42;100.00;102423.19;4968567;29;20098;-81
2023/05/27 06:49:16;;;;;;;15.25;3.75;;;;;;;15.73;99.76;102418.13;4969243;29;20043;-81
2023/05/27 06:51:41;;;;;;;14.30;4.10;;;;;;;15.83;96.04;102419.22;4978770;28;20058;-81
2023/05/27 06:54:07;;;;;;;14.38;3.33;;;;;;;15.51;97.93;102413.34;4939442;28;20045;-81
2023/05/27 06:56:32;;;;;;;16.80;4.85;;;;;;;15.38;97.79;102392.19;4974538;28;20052;-81
2023/05/27 06:58:57;;;;;;;13.55;3.92;;;;;;;15.73;97.85;102413.47;4962199;28;20081;-80
2023/05/27 07:01:23;;;;;;;15.95;3.92;;;;;;;16.38;92.58;102410.38;4966599;28;20048;-81
2023/05/27 07:03:48;;;;;;;11.02;3.67;;;;;;;16.62;91.42;102416.72;4972188;28;20043;-84
2023/05/27 07:06:14;;;;;;;13.30;3.88;;;;;;;16.99;89.84;102424.88;4963769;28;20462;-80
2023/05/27 07:08:40;;;;;;;12.15;3.65;;;;;;;17.00;87.06;102417.44;4983598;28;20478;-81
2023/05/27 07:11:06;;;;;;;15.38;4.93;;;;;;;17.20;86.82;102426.88;4946326;28;20081;-84
2023/05/27 07:13:31;;;;;;;15.75;5.10;;;;;;;17.12;81.08;102427.53;4940991;28;20074;-78
2023/05/27 07:15:57;;;;;;;17.90;4.57;;;;;;;17.01;85.76;102416.44;4971170;28;20113;-79
2023/05/27 07:18:22;;;;;;;16.98;4.07;;;;;;;16.84;87.95;102417.75;4975517;28;20035;-79
2023/05/27 07:20:48;;;;;;;22.73;4.15;;;;;;;17.49;83.96;102424.47;4963818;28;20034;-79
2023/05/27 07:23:13;;;;;;;15.20;3.83;;;;;;;17.31;83.28;102410.25;4966167;28;20045;-76
2023/05/27 07:25:39;;;;;;;11.75;3.90;;;;;;;17.77;78.98;102408.28;4983078;28;20062;-77
2023/05/27 07:28:04;;;;;;;17.48;3.63;;;;;;;18.01;81.28;102413.66;4975827;28;20054;-77
2023/05/27 07:30:30;;;;;;;16.98;4.57;;;;;;;17.94;77.86;102406.91;4965734;28;20031;-78
2023/05/27 07:32:56;;;;;;;14.02;4.00;;;;;;;17.21;82.56;102401.84;4945453;28;20051;-77
2023/05/27 07:35:21;;;;;;;20.77;5.82;;;;;;;17.33;85.13;102413.81;4952940;28;20108;-78
2023/05/27 07:37:47;;;;;;;14.15;4.47;;;;;;;17.95;79.47;102409.50;4978655;28;20034;-77
2023/05/27 07:40:12;;;;;;;19.33;4.53;;;;;;;18.18;77.57;102407.53;4972634;28;20494;-77
2023/05/27 07:42:38;;;;;;;23.15;5.28;;;;;;;17.78;79.52;102405.38;4958327;28;20049;-77
2023/05/27 07:45:03;;;;;;;16.30;4.30;;;;;;;18.26;77.58;102395.75;4974852;28;20042;-76
2023/05/27 07:47:29;;;;;;;19.33;4.25;;;;;;;18.39;76.05;102387.25;4970650;28;20097;-76
2023/05/27 07:49:55;;;;;;;18.63;4.32;;;;;;;18.59;73.50;102398.47;4939632;28;20046;-77
2023/05/27 07:52:20;;;;;;;14.50;4.75;;;;;;;18.21;76.60;102383.34;4943660;28;20050;-76
2023/05/27 07:54:47;;;;;;;18.15;4.50;;;;;;;19.12;72.76;102390.03;4959315;28;20070;-76
2023/05/27 07:57:14;;;;;;;16.92;4.55;;;;;;;19.38;70.42;102392.31;4976344;28;20478;-76
2023/05/27 07:59:39;;;;;;;14.43;4.47;;;;;;;18.70;72.98;102384.53;4962281;28;20035;-76
2023/05/27 08:02:05;;;;;;;15.07;3.90;;;;;;;19.16;70.75;102385.09;4959932;28;20070;-77
2023/05/27 08:04:30;;;;;;;15.07;4.20;;;;;;;19.20;71.76;102392.09;4959207;28;20099;-77
2023/05/27 08:06:56;;;;;;;12.48;3.85;;;;;;;19.50;68.54;102382.84;4957930;28;20046;-77
2023/05/27 08:09:21;;;;;;;28.25;5.32;;;;;;;19.36;69.00;102389.66;4942679;28;20051;-77
2023/05/27 08:11:47;;;;;;;18.88;4.18;;;;;;;19.98;64.75;102382.03;4966558;28;20547;-77
2023/05/27 08:14:12;;;;;;;13.13;3.47;;;;;;;19.73;65.85;102377.03;4973486;28;20046;-77
2023/05/27 08:16:38;;;;;;;16.40;4.28;;;;;;;19.97;65.62;102371.97;4958362;28;20031;-77
2023/05/27 08:19:03;;;;;;;14.30;4.22;;;;;;;20.45;63.89;102370.16;4971714;28;20109;-77
2023/05/27 08:21:29;;;;;;;15.57;4.38;;;;;;;19.77;63.55;102359.94;4952225;28;20035;-77
2023/05/27 08:23:55;;;;;;;12.10;4.25;;;;;;;18.97;65.82;102349.78;4970597;28;20062;-77
2023/05/27 08:26:20;;;;;;;19.55;4.60;;;;;;;19.63;64.90;102352.88;4949474;28;20508;-77
2023/05/27 08:28:46;;;;;;;23.50;4.97;;;;;;;20.05;65.71;102348.09;4968404;28;20047;-77
2023/05/27 08:31:11;;;;;;;16.02;4.32;;;;;;;20.43;63.64;102341.63;4951182;28;20030;-77
2023/05/27 08:33:37;;;;;;;16.52;3.92;;;;;;;20.78;60.92;102364.25;4957935;28;20475;-76
2023/05/27 08:36:02;;;;;;;16.23;5.43;;;;;;;20.73;58.63;102353.56;4969644;28;20069;-77
2023/05/27 08:38:28;;;;;;;17.85;4.70;;;;;;;20.56;60.41;102352.41;4967193;28;20113;-76
2023/05/27 08:40:53;;;;;;;20.88;4.88;;;;;;;20.17;60.80;102338.59;4959729;28;20031;-76
2023/05/27 08:43:21;;;;;;;17.13;4.93;;;;;;;20.24;63.40;102333.31;4938892;28;20035;-77
2023/05/27 08:45:48;;;;;;;15.23;4.57;;;;;;;21.28;59.86;102327.66;4971840;28;20125;-78
2023/05/27 08:48:14;;;;;;;12.30;4.05;;;;;;;20.84;57.99;102333.00;4948900;28;20043;-79
2023/05/27 08:50:40;;;;;;;13.50;4.57;;;;;;;20.54;60.72;102321.06;4945958;28;20043;-78
2023/05/27 08:53:07;;;;;;;18.90;5.38;;;;;;;20.81;60.04;102327.75;4943231;28;20042;-78
2023/05/27 08:55:33;;;;;;;15.48;5.00;;;;;;;21.71;58.15;102314.94;4968205;28;20114;-78
2023/05/27 08:57:59;;;;;;;13.13;4.50;;;;;;;21.45;58.12;102321.25;4948347;28;20442;-78
2023/05/27 09:00:26;;;;;;;11.18;4.43;;;;;;;21.49;57.00;102313.47;4932716;28;20141;-77
2023/05/27 09:02:51;;;;;;;18.92;4.78;;;;;;;20.80;57.94;102314.88;4967386;28;20047;-78
2023/05/27 09:05:17;;;;;;;19.13;4.75;;;;;;;21.12;57.53;102314.44;4951015;28;20038;-77
2023/05/27 09:07:44;;;;;;;17.70;4.72;;;;;;;21.15;57.57;102310.44;4969181;28;20031;-79
2023/05/27 09:10:10;;;;;;;16.08;4.88;;;;;;;21.89;55.13;102312.13;4946853;28;20039;-78
2023/05/27 09:12:36;;;;;;;14.73;4.70;;;;;;;21.99;54.69;102314.84;4964399;28;20039;-77
2023/05/27 09:15:03;;;;;;;21.10;4.78;;;;;;;21.47;55.04;102310.84;4950534;28;20039;-78
2023/05/27 09:17:29;;;;;;;16.98;5.05;;;;;;;22.29;51.70;102302.38;4969547;28;20054;-77
2023/05/27 09:19:55;;;;;;;16.23;4.60;;;;;;;21.52;55.01;102293.66;4967036;28;20042;-78
2023/05/27 09:22:25;;;;;;;24.17;6.18;;;;;;;21.77;55.12;102291.97;4936005;28;20043;-78
2023/05/27 09:24:54;;;;;;;19.05;4.93;;;;;;;22.18;53.87;102288.66;4950172;28;20089;-78
2023/05/27 09:27:31;;;;;;;23.15;5.50;;;;;;;21.76;54.86;102293.00;4954567;28;20035;-78
2023/05/27 09:30:06;;;;;;;18.10;4.80;;;;;;;21.06;55.46;102288.06;4961944;28;20046;-78
2023/05/27 09:32:32;;;;;;;21.42;4.50;;;;;;;22.62;51.48;102284.94;4971284;28;20085;-78
2023/05/27 09:35:00;;;;;;;14.80;5.00;;;;;;;21.83;52.68;102288.53;4968986;28;20042;-78
2023/05/27 09:37:31;;;;;;;20.52;5.25;;;;;;;21.79;52.65;102283.44;4953570;28;20550;-78
2023/05/27 09:39:57;;;;;;;17.10;4.88;;;;;;;22.17;52.97;102279.41;4967640;28;20509;-79
2023/05/27 09:42:23;;;;;;;17.63;4.65;;;;;;;21.92;54.25;102269.94;4953772;28;20522;-79
2023/05/27 09:44:49;;;;;;;17.85;4.55;;;;;;;22.28;52.28;102272.66;4938111;28;20096;-78
2023/05/27 09:47:17;;;;;;;14.20;4.72;;;;;;;22.26;51.44;102268.31;4951689;28;20055;-78
2023/05/27 09:49:43;;;;;;;16.70;4.72;;;;;;;22.51;51.10;102270.25;4971213;28;20043;-80
2023/05/27 09:52:14;;;;;;;18.38;4.88;;;;;;;23.03;52.15;102271.19;4964381;28;20109;-77
2023/05/27 09:54:40;;;;;;;16.60;4.60;;;;;;;22.81;49.85;102255.88;4962026;28;20039;-77
2023/05/27 09:57:07;;;;;;;15.80;4.30;;;;;;;23.36;48.77;102260.13;4928812;28;20035;-77
2023/05/27 09:59:33;;;;;;;17.85;4.53;;;;;;;23.44;45.82;102252.59;4963381;28;20154;-77
2023/05/27 10:02:01;;;;;;;17.27;4.68;;;;;;;22.45;49.95;102256.94;4944176;28;20033;-77
2023/05/27 10:04:28;;;;;;;18.65;5.15;;;;;;;22.78;47.52;102254.31;4949725;28;20027;-77
2023/05/27 10:06:54;;;;;;;14.43;4.75;;;;;;;22.72;49.38;102246.59;4971507;28;20072;-76
2023/05/27 10:09:19;;;;;;;18.15;4.43;;;;;;;22.27;50.44;102244.91;4953995;28;20035;-78
2023/05/27 10:11:45;;;;;;;13.00;3.85;;;;;;;22.40;49.59;102242.63;4955175;28;20070;-78
2023/05/27 10:14:11;;;;;;;25.05;4.55;;;;;;;22.24;49.18;102242.50;4971588;28;20106;-77
2023/05/27 10:16:37;;;;;;;25.70;4.68;;;;;;;22.52;48.01;102244.06;4968200;28;20041;-78
2023/05/27 10:19:10;;;;;;;16.00;4.15;;;;;;;22.69;47.75;102233.84;4948108;28;20039;-78
2023/05/27 10:21:42;;;;;;;17.83;4.63;;;;;;;22.83;49.70;102228.69;4945130;28;20039;-78
2023/05/27 10:24:11;;;;;;;12.05;3.78;;;;;;;23.35;46.96;102230.41;4968101;28;20035;-78
2023/05/27 10:26:43;;;;;;;14.95;4.03;;;;;;;23.85;43.34;102226.63;4955161;28;20367;-78
2023/05/27 10:29:11;;;;;;;14.93;3.85;;;;;;;23.09;45.68;102223.91;4938915;29;20443;-78
2023/05/27 10:31:57;;;;;;;13.52;4.10;;;;;;;22.66;46.58;102227.72;4965952;28;20379;-78
2023/05/27 10:34:36;;;;;;;14.23;4.05;;;;;;;22.26;46.97;102218.06;4948931;28;20054;-78
2023/05/27 10:37:02;;;;;;;12.57;3.40;;;;;;;22.50;48.46;102211.78;4965201;28;20115;-78
2023/05/27 10:39:28;;;;;;;15.43;4.43;;;;;;;22.88;46.15;102217.88;4961951;28;20500;-78
2023/05/27 10:41:55;;;;;;;16.23;4.40;;;;;;;22.29;46.85;102217.78;4958915;28;20038;-78
2023/05/27 10:44:32;;;;;;;10.75;3.80;;;;;;;22.98;46.37;102210.22;4941592;28;20497;-78
2023/05/27 10:47:03;;;;;;;26.58;3.72;;;;;;;23.56;47.65;102205.59;4969585;28;20149;-78
2023/05/27 10:49:35;;;;;;;21.08;3.88;;;;;;;23.33;47.43;102208.22;4954611;28;20038;-77
2023/05/27 10:52:15;;;;;;;14.25;3.42;;;;;;;23.00;44.71;102204.47;4958274;28;20057;-78
2023/05/27 10:54:50;;;;;;;14.65;3.50;;;;;;;23.06;46.24;102206.56;4970876;28;20035;-78
2023/05/27 10:57:16;;;;;;;12.77;3.75;;;;;;;22.79;44.78;102199.31;4966324;28;20109;-79
2023/05/27 10:59:58;;;;;;;13.50;3.70;;;;;;;22.94;44.74;102194.84;4954670;28;20031;-79
2023/05/27 11:02:28;;;;;;;17.75;3.92;;;;;;;23.07;43.48;102188.78;4940518;28;20046;-79
2023/05/27 11:04:54;;;;;;;15.88;3.70;;;;;;;22.84;46.24;102189.41;4970150;28;20059;-79
2023/05/27 11:07:21;;;;;;;22.00;4.13;;;;;;;23.45;44.91;102175.22;4938219;28;20509;-78
2023/05/27 11:09:48;;;;;;;11.18;3.25;;;;;;;22.64;43.69;102176.75;4956595;28;20100;-78
2023/05/27 11:12:17;;;;;;;13.38;3.80;;;;;;;22.49;44.57;102176.53;4951585;28;20039;-78
2023/05/27 11:14:44;;;;;;;21.20;3.67;;;;;;;22.17;46.62;102172.53;4953928;28;20035;-78
2023/05/27 11:17:11;;;;;;;15.38;3.25;;;;;;;22.87;45.67;102171.41;4952528;28;20158;-78